Oakland Park, Florida
Current Conditions -  °F | °C
As of 6:53 AM on Friday 28 Nov 2014 (Local Time) from KLEE Reporting Station
Clear Clear  
Wind Chill: 33°   Ceiling: Unl
Heat Index: 39°   Visibility: 10mi
Dew Point: 32°   Wind: 8mph
Humidity: 76%   Direction: 360°N
Pressure: 30.33"   Gusts: NA
Location:  28.8°N, 81.68°W
Report Text: KLEE 281153Z 36007KT 10SM CLR 04/00 A3033 RMK AO2 SLP270 T00390000 10078 20039 53005
Loading
Personal Weather Stations






























Interactive Weather Map New forecast layout! Learn more

10-Day Weather Forecast

Advertisements
Track Severe Weather on mobile